createdAt,value
2024-03-05T00:02:18.323Z,15.83
2024-03-05T00:05:07.785Z,16.27
2024-03-05T00:07:55.148Z,15.13
2024-03-05T00:10:42.683Z,15.03
2024-03-05T00:13:30.013Z,14.70
2024-03-05T00:16:17.789Z,14.87
2024-03-05T00:19:07.212Z,14.57
2024-03-05T00:21:54.536Z,15.47
2024-03-05T00:24:42.104Z,15.23
2024-03-05T00:27:29.518Z,15.13
2024-03-05T00:30:19.743Z,15.87
2024-03-05T00:33:07.720Z,14.17
2024-03-05T00:35:56.874Z,14.90
2024-03-05T00:38:44.313Z,15.37
2024-03-05T00:41:31.848Z,13.97
2024-03-05T00:44:19.356Z,13.07
2024-03-05T00:47:07.204Z,14.47
2024-03-05T00:49:56.467Z,13.23
2024-03-05T00:52:45.342Z,12.17
2024-03-05T00:55:33.053Z,11.97
2024-03-05T00:58:21.920Z,14.40
2024-03-05T01:01:09.270Z,13.27
2024-03-05T01:03:56.698Z,12.70
2024-03-05T01:06:45.818Z,15.43
2024-03-05T01:09:34.634Z,14.17
2024-03-05T01:12:22.279Z,13.63
2024-03-05T01:15:10.303Z,13.37
2024-03-05T01:17:58.479Z,13.60
2024-03-05T01:20:46.010Z,13.27
2024-03-05T01:23:34.127Z,13.20
2024-03-05T01:26:24.053Z,13.13
2024-03-05T01:29:13.440Z,11.87
2024-03-05T01:32:02.956Z,13.23
2024-03-05T01:34:50.647Z,13.20
2024-03-05T01:37:38.725Z,12.80
2024-03-05T01:40:26.314Z,13.00
2024-03-05T01:43:16.206Z,13.23
2024-03-05T01:46:05.853Z,12.27
2024-03-05T01:48:53.538Z,12.50
2024-03-05T01:51:41.469Z,12.20
2024-03-05T01:54:30.448Z,13.27
2024-03-05T01:57:18.239Z,12.60
2024-03-05T02:00:11.031Z,12.57
2024-03-05T02:02:59.019Z,13.87
2024-03-05T02:05:48.439Z,12.73
2024-03-05T02:08:36.468Z,12.80
2024-03-05T02:11:24.383Z,13.67
2024-03-05T02:14:12.139Z,12.87
2024-03-05T02:17:02.542Z,13.47
2024-03-05T02:19:53.018Z,13.33
2024-03-05T02:22:42.197Z,12.23
2024-03-05T02:25:29.338Z,12.77
2024-03-05T02:28:16.935Z,13.00
2024-03-05T02:31:04.710Z,13.03
2024-03-05T02:33:52.148Z,13.73
2024-03-05T02:36:39.386Z,13.87
2024-03-05T02:39:28.795Z,13.07
2024-03-05T02:42:16.239Z,13.37
2024-03-05T02:45:05.877Z,13.33
2024-03-05T02:47:53.628Z,12.57
2024-03-05T02:50:41.169Z,12.23
2024-03-05T02:53:28.739Z,14.03
2024-03-05T02:56:17.702Z,13.00
2024-03-05T02:59:05.509Z,12.97
2024-03-05T03:01:52.945Z,13.73
2024-03-05T03:04:40.589Z,13.47
2024-03-05T03:07:27.771Z,12.63
2024-03-05T03:10:16.113Z,13.57
2024-03-05T03:13:04.988Z,12.17
2024-03-05T03:15:52.910Z,13.67
2024-03-05T03:18:40.472Z,14.27
2024-03-05T03:21:28.546Z,12.93
2024-03-05T03:24:15.871Z,13.47
2024-03-05T03:27:03.417Z,13.57
2024-03-05T03:29:52.473Z,13.90
2024-03-05T03:32:40.207Z,13.40
2024-03-05T03:35:27.736Z,13.17
2024-03-05T03:38:15.591Z,13.73
2024-03-05T03:41:03.728Z,12.07
2024-03-05T03:43:51.345Z,13.60
2024-03-05T03:46:40.153Z,13.03
2024-03-05T03:49:27.999Z,14.53
2024-03-05T03:52:15.834Z,12.90
2024-03-05T03:55:03.248Z,12.53
2024-03-05T03:57:50.796Z,13.00
2024-03-05T04:00:38.973Z,13.17
2024-03-05T04:03:27.856Z,12.60
2024-03-05T04:06:15.490Z,13.10
2024-03-05T04:09:04.379Z,12.83
2024-03-05T04:11:51.953Z,11.97
2024-03-05T04:14:40.049Z,13.20
2024-03-05T04:17:27.571Z,12.97
2024-03-05T04:20:18.008Z,13.30
2024-03-05T04:23:06.002Z,12.47
2024-03-05T04:25:59.242Z,14.37
2024-03-05T04:28:50.317Z,12.50
2024-03-05T04:31:47.075Z,12.23
2024-03-05T04:34:40.765Z,13.00
2024-03-05T04:37:29.846Z,13.77
2024-03-05T04:40:17.361Z,12.13
2024-03-05T04:43:04.855Z,12.40
2024-03-05T04:45:52.434Z,11.77
2024-03-05T04:48:40.409Z,11.27
2024-03-05T04:51:28.110Z,12.00
2024-03-05T04:54:17.229Z,10.67
2024-03-05T04:57:05.607Z,11.77
2024-03-05T04:59:53.742Z,11.73
2024-03-05T05:02:41.036Z,10.97
2024-03-05T05:05:28.706Z,11.40
2024-03-05T05:08:17.798Z,11.37
2024-03-05T05:11:07.545Z,11.70
2024-03-05T05:13:55.139Z,11.83
2024-03-05T05:16:42.786Z,11.60
2024-03-05T05:19:30.278Z,12.97
2024-03-05T05:22:18.236Z,12.10
2024-03-05T05:25:06.118Z,11.63
2024-03-05T05:27:54.847Z,11.50
2024-03-05T05:30:42.120Z,11.83
2024-03-05T05:33:29.462Z,11.50
2024-03-05T05:36:17.113Z,11.90
2024-03-05T05:39:04.585Z,12.73
2024-03-05T05:41:51.804Z,10.97
2024-03-05T05:44:41.221Z,11.23
2024-03-05T05:47:28.771Z,11.40
2024-03-05T05:50:20.088Z,11.50
2024-03-05T05:53:09.813Z,11.00
2024-03-05T05:55:57.412Z,11.07
2024-03-05T05:58:45.012Z,10.97
2024-03-05T06:01:34.773Z,11.23
2024-03-05T06:04:22.068Z,11.33
2024-03-05T06:07:11.939Z,12.13
2024-03-05T06:09:59.742Z,11.13
2024-03-05T06:12:47.436Z,11.63
2024-03-05T06:15:35.377Z,11.33
2024-03-05T06:18:25.364Z,10.63
2024-03-05T06:21:12.995Z,10.30
2024-03-05T06:24:00.944Z,10.27
2024-03-05T06:26:48.317Z,10.80
2024-03-05T06:29:37.463Z,10.77
2024-03-05T06:32:25.343Z,10.87
2024-03-05T06:35:13.859Z,10.33
2024-03-05T06:38:02.079Z,11.23
2024-03-05T06:40:50.017Z,10.80
2024-03-05T06:43:38.869Z,10.60
2024-03-05T06:46:30.652Z,11.07
2024-03-05T06:49:27.933Z,10.53
2024-03-05T06:52:34.011Z,11.60
2024-03-05T06:55:38.456Z,10.73
2024-03-05T06:58:25.849Z,10.97
2024-03-05T07:01:14.772Z,11.10
2024-03-05T07:04:02.684Z,11.20
2024-03-05T07:06:50.532Z,11.57
2024-03-05T07:09:39.624Z,10.87
2024-03-05T07:12:27.643Z,9.30
2024-03-05T07:15:15.985Z,11.00
2024-03-05T07:18:04.264Z,10.60
2024-03-05T07:20:51.731Z,9.73
2024-03-05T07:23:41.019Z,10.30
2024-03-05T07:26:33.001Z,11.23
2024-03-05T07:29:20.370Z,10.00
2024-03-05T07:32:08.567Z,10.33
2024-03-05T07:34:56.029Z,9.80
2024-03-05T07:37:46.258Z,9.57
2024-03-05T07:40:33.614Z,9.43
2024-03-05T07:43:22.632Z,9.60
2024-03-05T07:46:09.911Z,8.83
2024-03-05T07:48:57.540Z,9.23
2024-03-05T07:51:45.756Z,9.00
2024-03-05T07:54:32.950Z,9.47
2024-03-05T07:57:20.587Z,9.67
2024-03-05T08:00:13.256Z,9.90
2024-03-05T08:03:01.193Z,8.88
2024-03-05T08:05:48.382Z,8.98
2024-03-05T08:08:35.813Z,8.82
2024-03-05T08:11:24.534Z,9.60
2024-03-05T08:14:12.196Z,9.60
2024-03-05T08:17:01.074Z,9.48
2024-03-05T08:19:48.376Z,9.05
2024-03-05T08:22:36.166Z,9.13
2024-03-05T08:25:24.501Z,10.50
2024-03-05T08:28:11.687Z,9.88
2024-03-05T08:30:59.230Z,9.75
2024-03-05T08:33:48.245Z,9.77
2024-03-05T08:36:38.255Z,9.30
2024-03-05T08:39:26.601Z,9.73
2024-03-05T08:42:15.071Z,9.68
2024-03-05T08:45:05.391Z,9.80
2024-03-05T08:47:54.447Z,10.23
2024-03-05T08:50:43.601Z,8.85
2024-03-05T08:53:31.009Z,9.52
2024-03-05T08:56:18.739Z,10.20
2024-03-05T08:59:08.279Z,9.43
2024-03-05T09:01:55.882Z,10.15
2024-03-05T09:04:43.434Z,9.45
2024-03-05T09:07:32.604Z,10.55
2024-03-05T09:10:20.142Z,10.02
2024-03-05T09:13:07.707Z,10.52
2024-03-05T09:15:55.161Z,10.43
2024-03-05T09:18:42.636Z,9.70
2024-03-05T09:21:29.840Z,11.40
2024-03-05T09:24:19.092Z,10.55
2024-03-05T09:27:07.539Z,10.55
2024-03-05T09:29:56.260Z,10.35
2024-03-05T09:32:44.663Z,10.55
2024-03-05T09:35:35.878Z,9.88
2024-03-05T09:38:23.216Z,10.57
2024-03-05T09:41:13.852Z,10.85
2024-03-05T09:44:04.594Z,10.50
2024-03-05T09:46:52.013Z,9.43
2024-03-05T09:49:39.351Z,9.90
2024-03-05T09:52:26.734Z,10.15
2024-03-05T09:55:15.349Z,9.82
2024-03-05T09:58:10.855Z,9.93
2024-03-05T10:00:58.236Z,9.57
2024-03-05T10:03:45.828Z,9.20
2024-03-05T10:06:33.518Z,9.80
2024-03-05T10:09:23.826Z,9.20
2024-03-05T10:12:14.461Z,9.20
2024-03-05T10:15:16.023Z,8.63
2024-03-05T10:18:04.153Z,8.68
2024-03-05T10:20:51.713Z,8.13
2024-03-05T10:23:39.258Z,8.52
2024-03-05T10:26:28.943Z,9.02
2024-03-05T10:29:16.464Z,7.82
2024-03-05T10:32:08.892Z,8.38
2024-03-05T10:34:56.297Z,8.82
2024-03-05T10:37:43.656Z,9.15
2024-03-05T10:40:33.442Z,9.18
2024-03-05T10:43:21.502Z,9.80
2024-03-05T10:46:08.728Z,8.67
2024-03-05T10:48:59.272Z,9.50
2024-03-05T10:51:49.392Z,8.27
2024-03-05T10:54:39.774Z,8.70
2024-03-05T10:57:29.917Z,9.17
2024-03-05T11:00:17.066Z,8.07
2024-03-05T11:03:08.742Z,9.20
2024-03-05T11:05:58.780Z,7.87
2024-03-05T11:08:46.715Z,7.67
2024-03-05T11:11:34.359Z,7.80
2024-03-05T11:14:22.667Z,7.47
2024-03-05T11:17:13.279Z,7.60
2024-03-05T11:20:01.800Z,7.07
2024-03-05T11:22:54.213Z,6.53
2024-03-05T11:25:48.351Z,6.10
2024-03-05T11:28:37.136Z,6.90
2024-03-05T11:31:29.699Z,6.57
2024-03-05T11:34:18.774Z,6.17
2024-03-05T11:37:09.520Z,5.80
2024-03-05T11:40:11.654Z,6.57
2024-03-05T11:42:59.012Z,4.70
2024-03-05T11:45:50.845Z,6.10
2024-03-05T11:48:37.923Z,5.33
2024-03-05T11:51:26.384Z,5.57
2024-03-05T11:54:15.442Z,5.13
2024-03-05T11:57:08.865Z,5.63
2024-03-05T11:59:56.870Z,4.97
2024-03-05T12:02:45.168Z,6.07
2024-03-05T12:05:32.666Z,5.40
2024-03-05T12:08:24.698Z,5.30
2024-03-05T12:11:12.769Z,5.60
2024-03-05T12:14:10.121Z,5.20
2024-03-05T12:17:00.795Z,4.97
2024-03-05T12:19:57.247Z,5.00
2024-03-05T12:22:50.913Z,4.33
2024-03-05T12:25:38.313Z,3.43
2024-03-05T12:28:26.830Z,4.00
2024-03-05T12:31:15.923Z,4.33
2024-03-05T12:34:04.031Z,4.17
2024-03-05T12:36:52.032Z,4.43
2024-03-05T12:39:40.971Z,4.73
2024-03-05T12:42:29.758Z,4.83
2024-03-05T12:45:17.904Z,4.97
2024-03-05T12:48:10.177Z,4.87
2024-03-05T12:50:57.772Z,5.23
2024-03-05T12:53:48.085Z,5.37
2024-03-05T12:56:42.996Z,4.50
2024-03-05T12:59:30.952Z,4.07
2024-03-05T13:02:19.065Z,4.77
2024-03-05T13:05:09.431Z,5.20
2024-03-05T13:07:57.353Z,4.70
2024-03-05T13:10:45.128Z,5.63
2024-03-05T13:13:32.653Z,4.80
2024-03-05T13:16:20.290Z,5.13
2024-03-05T13:19:08.258Z,5.03
2024-03-05T13:21:57.615Z,5.53
2024-03-05T13:24:45.137Z,5.97
2024-03-05T13:27:32.669Z,5.63
2024-03-05T13:30:21.905Z,5.37
2024-03-05T13:33:09.085Z,4.67
2024-03-05T13:35:57.282Z,5.10
2024-03-05T13:38:46.339Z,5.33
2024-03-05T13:41:33.639Z,4.90
2024-03-05T13:44:23.358Z,5.03
2024-03-05T13:47:11.348Z,5.20
2024-03-05T13:49:58.937Z,5.03
2024-03-05T13:52:49.593Z,5.17
2024-03-05T13:55:39.013Z,5.13
2024-03-05T13:58:26.580Z,6.07
2024-03-05T14:01:14.132Z,6.50
2024-03-05T14:04:01.766Z,5.80
2024-03-05T14:06:50.752Z,5.70
2024-03-05T14:09:38.052Z,6.23
2024-03-05T14:12:30.403Z,5.63
2024-03-05T14:15:22.213Z,5.60
2024-03-05T14:18:12.051Z,5.83
2024-03-05T14:20:59.554Z,5.60
2024-03-05T14:23:48.107Z,6.33
2024-03-05T14:26:35.574Z,5.97
2024-03-05T14:29:24.747Z,6.70
2024-03-05T14:32:13.013Z,6.60
2024-03-05T14:35:00.634Z,7.00
2024-03-05T14:37:48.532Z,7.30
2024-03-05T14:40:36.122Z,6.60
2024-03-05T14:43:23.665Z,6.23
2024-03-05T14:46:12.466Z,6.27
2024-03-05T14:48:59.954Z,5.63
2024-03-05T14:51:47.493Z,6.07
2024-03-05T14:54:35.103Z,6.27
2024-03-05T14:57:22.635Z,6.13
2024-03-05T15:00:14.320Z,5.53
2024-03-05T15:03:03.021Z,5.57
2024-03-05T15:05:50.160Z,5.50
2024-03-05T15:08:38.542Z,5.87
2024-03-05T15:11:25.999Z,5.67
2024-03-05T15:14:13.389Z,5.50
2024-03-05T15:17:02.145Z,6.27
2024-03-05T15:19:51.013Z,5.90
2024-03-05T15:22:39.568Z,6.30
2024-03-05T15:25:27.160Z,5.80
2024-03-05T15:28:14.665Z,6.00
2024-03-05T15:31:01.908Z,5.80
2024-03-05T15:33:49.058Z,6.47
2024-03-05T15:36:37.619Z,7.43
2024-03-05T15:39:24.998Z,6.57
2024-03-05T15:42:12.859Z,6.40
2024-03-05T15:45:00.550Z,6.33
2024-03-05T15:47:49.616Z,6.90
2024-03-05T15:50:37.505Z,6.50
2024-03-05T15:53:27.685Z,6.63
2024-03-05T15:56:19.374Z,6.63
2024-03-05T15:59:24.204Z,6.67
2024-03-05T16:02:11.672Z,7.00
2024-03-05T16:05:14.261Z,6.57
2024-03-05T16:08:08.782Z,6.70
2024-03-05T16:11:00.190Z,6.40
2024-03-05T16:13:47.900Z,7.07
2024-03-05T16:16:38.565Z,6.27
2024-03-05T16:19:26.427Z,7.67
2024-03-05T16:22:14.953Z,6.70
2024-03-05T16:25:12.138Z,6.70
2024-03-05T16:28:02.450Z,7.23
2024-03-05T16:30:50.136Z,7.17
2024-03-05T16:33:37.401Z,7.37
2024-03-05T16:36:24.800Z,7.03
2024-03-05T16:39:19.216Z,6.83
2024-03-05T16:42:11.887Z,7.20
2024-03-05T16:45:01.796Z,7.17
2024-03-05T16:47:49.987Z,7.93
2024-03-05T16:50:37.541Z,7.93
2024-03-05T16:53:24.959Z,7.70
2024-03-05T16:56:12.580Z,7.60
2024-03-05T16:59:04.914Z,7.40
2024-03-05T17:01:53.608Z,7.60
2024-03-05T17:04:44.213Z,8.40
2024-03-05T17:07:33.140Z,7.60
2024-03-05T17:10:24.724Z,9.10
2024-03-05T17:13:19.339Z,8.47
2024-03-05T17:16:12.348Z,8.50
2024-03-05T17:19:02.071Z,8.97
2024-03-05T17:21:50.228Z,8.17
2024-03-05T17:24:38.536Z,8.77
2024-03-05T17:27:26.441Z,8.73
2024-03-05T17:30:17.121Z,8.47
2024-03-05T17:33:04.996Z,8.70
2024-03-05T17:35:56.360Z,8.80
2024-03-05T17:38:43.769Z,9.03
2024-03-05T17:41:36.285Z,9.03
2024-03-05T17:44:24.164Z,9.03
2024-03-05T17:47:12.070Z,8.93
2024-03-05T17:50:00.482Z,8.90
2024-03-05T17:52:49.700Z,9.40
2024-03-05T17:55:37.479Z,8.93
2024-03-05T17:58:24.862Z,9.07
2024-03-05T18:01:13.033Z,9.73
2024-03-05T18:04:02.232Z,9.97
2024-03-05T18:06:49.937Z,9.23
2024-03-05T18:09:42.273Z,9.67
2024-03-05T18:12:29.809Z,9.83
2024-03-05T18:15:20.488Z,10.47
2024-03-05T18:18:08.338Z,10.40
2024-03-05T18:20:56.673Z,10.30
2024-03-05T18:23:44.250Z,10.50
2024-03-05T18:26:32.963Z,9.97
2024-03-05T18:29:22.061Z,9.87
2024-03-05T18:32:09.885Z,10.03
2024-03-05T18:34:57.253Z,10.00
2024-03-05T18:37:44.963Z,10.13
2024-03-05T18:40:33.526Z,9.73
2024-03-05T18:43:22.703Z,10.03
2024-03-05T18:46:10.711Z,10.13
2024-03-05T18:48:58.287Z,9.80
2024-03-05T18:51:47.362Z,9.53
2024-03-05T18:54:35.086Z,9.53
2024-03-05T18:57:23.832Z,10.30
2024-03-05T19:00:16.378Z,9.13
2024-03-05T19:03:03.532Z,9.27
2024-03-05T19:05:51.247Z,10.53
2024-03-05T19:08:39.465Z,9.47
2024-03-05T19:11:28.160Z,9.63
2024-03-05T19:14:18.158Z,9.60
2024-03-05T19:17:07.648Z,9.10
2024-03-05T19:19:55.258Z,10.43
2024-03-05T19:22:43.153Z,10.97
2024-03-05T19:25:30.293Z,12.30
2024-03-05T19:28:17.973Z,12.53
2024-03-05T19:31:05.656Z,10.90
2024-03-05T19:33:55.723Z,11.77
2024-03-05T19:36:43.536Z,11.20
2024-03-05T19:39:30.934Z,12.40
2024-03-05T19:42:18.533Z,12.60
2024-03-05T19:45:10.107Z,13.27
2024-03-05T19:47:58.561Z,13.10
2024-03-05T19:50:47.688Z,13.17
2024-03-05T19:53:36.089Z,12.80
2024-03-05T19:56:23.695Z,12.70
2024-03-05T19:59:12.193Z,13.67
2024-03-05T20:02:00.003Z,12.43
2024-03-05T20:04:47.155Z,13.27
2024-03-05T20:07:36.091Z,13.17
2024-03-05T20:10:23.795Z,12.90
2024-03-05T20:13:11.303Z,13.37
2024-03-05T20:15:59.056Z,13.53
2024-03-05T20:18:46.248Z,13.30
2024-03-05T20:21:37.217Z,14.40
2024-03-05T20:24:26.361Z,13.30
2024-03-05T20:27:14.909Z,13.20
2024-03-05T20:30:13.228Z,12.43
2024-03-05T20:33:01.055Z,13.00
2024-03-05T20:35:48.024Z,13.57
2024-03-05T20:38:35.491Z,12.23
2024-03-05T20:41:24.553Z,14.03
2024-03-05T20:44:11.957Z,15.20
2024-03-05T20:46:59.598Z,13.70
2024-03-05T20:49:46.889Z,12.80
2024-03-05T20:52:34.745Z,13.33
2024-03-05T20:55:22.234Z,13.70
2024-03-05T20:58:11.081Z,13.63
2024-03-05T21:00:58.469Z,13.63
2024-03-05T21:03:46.124Z,13.60
2024-03-05T21:06:33.666Z,12.73
2024-03-05T21:09:21.523Z,13.40
2024-03-05T21:12:09.577Z,13.57
2024-03-05T21:14:58.182Z,12.93
2024-03-05T21:17:45.633Z,12.23
2024-03-05T21:20:33.049Z,13.10
2024-03-05T21:23:20.808Z,13.40
2024-03-05T21:26:20.156Z,14.77
2024-03-05T21:29:15.765Z,13.47
2024-03-05T21:32:05.434Z,18.20
2024-03-05T21:34:53.109Z,18.33
2024-03-05T21:37:40.671Z,19.23
2024-03-05T21:40:29.023Z,18.07
2024-03-05T21:43:16.692Z,19.30
2024-03-05T21:46:05.121Z,20.10
2024-03-05T21:48:54.334Z,18.57
2024-03-05T21:51:42.854Z,17.17
2024-03-05T21:54:30.750Z,18.20
2024-03-05T21:57:18.149Z,18.10
2024-03-05T22:00:09.889Z,17.60
2024-03-05T22:02:58.860Z,17.43
2024-03-05T22:05:47.755Z,17.80
2024-03-05T22:08:35.067Z,18.33
2024-03-05T22:11:22.745Z,17.83
2024-03-05T22:14:11.434Z,18.37
2024-03-05T22:16:58.818Z,18.83
2024-03-05T22:19:46.541Z,21.80
2024-03-05T22:22:35.303Z,20.73
2024-03-05T22:25:22.655Z,21.27
2024-03-05T22:28:10.719Z,19.67
2024-03-05T22:30:59.253Z,19.63
2024-03-05T22:33:46.603Z,19.57
2024-03-05T22:36:34.179Z,18.60
2024-03-05T22:39:23.022Z,19.60
2024-03-05T22:42:11.060Z,18.23
2024-03-05T22:44:58.620Z,18.37
2024-03-05T22:47:46.602Z,19.97
2024-03-05T22:50:34.100Z,19.03
2024-03-05T22:53:22.898Z,20.07
2024-03-05T22:56:12.036Z,19.50
2024-03-05T22:58:59.676Z,20.03
2024-03-05T23:01:47.906Z,20.77
2024-03-05T23:04:35.896Z,20.40
2024-03-05T23:07:23.639Z,20.33
2024-03-05T23:10:11.428Z,21.80
2024-03-05T23:13:00.237Z,20.13
2024-03-05T23:15:47.752Z,20.77
2024-03-05T23:18:35.457Z,20.77
2024-03-05T23:21:23.048Z,20.63
2024-03-05T23:24:10.644Z,20.47
2024-03-05T23:26:58.018Z,20.83
2024-03-05T23:29:47.102Z,19.47
2024-03-05T23:32:34.721Z,19.93
2024-03-05T23:35:23.318Z,19.30
2024-03-05T23:38:11.250Z,18.93
2024-03-05T23:40:58.753Z,18.80
2024-03-05T23:43:46.196Z,18.37
2024-03-05T23:46:35.445Z,19.40
2024-03-05T23:49:23.392Z,18.27
2024-03-05T23:52:10.804Z,23.43
2024-03-05T23:55:01.290Z,23.00
2024-03-05T23:57:50.196Z,22.30
